Time;durP1;ratioP1;P1;durP2;ratioP2;P2;SDS_P1;SDS_P2;PMS_P1;PMS_P2;Temp;Humidity;BMP_temperature;BMP_pressure;BME280_temperature;BME280_humidity;BME280_pressure;Samples;Min_cycle;Max_cycle;Signal;HPM_P1;HPM_P2
2024/03/20 00:01:33;;;;;;;5.60;3.83;;;10.70;99.90;;;;;;4807720;29;20861;-76
2024/03/20 00:03:59;;;;;;;5.50;3.40;;;10.70;99.90;;;;;;4792654;29;20442;-77
2024/03/20 00:06:25;;;;;;;5.10;3.77;;;10.60;99.90;;;;;;4780721;29;20250;-79
2024/03/20 00:08:50;;;;;;;6.60;4.13;;;10.60;99.90;;;;;;4799845;29;20539;-77
2024/03/20 00:11:17;;;;;;;5.47;4.07;;;10.60;99.90;;;;;;4793134;29;20477;-77
2024/03/20 00:13:42;;;;;;;6.30;3.93;;;10.60;99.90;;;;;;4798206;29;20259;-77
2024/03/20 00:16:10;;;;;;;4.97;4.00;;;10.60;99.90;;;;;;4801947;29;20491;-77
2024/03/20 00:18:36;;;;;;;4.10;3.60;;;10.60;99.90;;;;;;4800340;29;20199;-77
2024/03/20 00:21:02;;;;;;;4.97;3.70;;;10.60;99.90;;;;;;4799795;29;20443;-77
2024/03/20 00:23:28;;;;;;;3.83;3.23;;;10.60;99.90;;;;;;4798437;29;20433;-77
2024/03/20 00:25:53;;;;;;;6.07;3.80;;;10.60;99.90;;;;;;4804412;29;20520;-78
2024/03/20 00:28:19;;;;;;;9.03;4.57;;;10.60;99.90;;;;;;4798376;29;20180;-77
2024/03/20 00:30:44;;;;;;;8.40;4.20;;;10.60;99.90;;;;;;4775966;29;20208;-77
2024/03/20 00:33:10;;;;;;;6.33;4.30;;;10.60;99.90;;;;;;4807502;29;20592;-78
2024/03/20 00:35:37;;;;;;;5.30;4.07;;;10.50;99.90;;;;;;4778440;29;20191;-78
2024/03/20 00:38:04;;;;;;;6.67;3.57;;;10.50;99.90;;;;;;4789416;29;20666;-76
2024/03/20 00:40:30;;;;;;;6.20;3.90;;;10.50;99.90;;;;;;4795274;29;20459;-78
2024/03/20 00:42:55;;;;;;;5.70;4.33;;;10.50;99.90;;;;;;4796063;29;20417;-77
2024/03/20 00:45:21;;;;;;;5.60;4.10;;;10.50;99.90;;;;;;4786013;29;20679;-77
2024/03/20 00:47:47;;;;;;;5.27;3.23;;;10.40;99.90;;;;;;4811069;29;20210;-78
2024/03/20 00:50:12;;;;;;;4.10;3.10;;;10.40;99.90;;;;;;4787572;29;20461;-76
2024/03/20 00:52:38;;;;;;;5.57;3.97;;;10.30;99.90;;;;;;4792341;29;20234;-77
2024/03/20 00:55:04;;;;;;;7.53;4.10;;;10.30;99.90;;;;;;4795601;29;20200;-77
2024/03/20 00:57:30;;;;;;;4.60;3.70;;;10.30;99.90;;;;;;4774306;30;20254;-77
2024/03/20 00:59:56;;;;;;;5.97;4.50;;;10.30;99.90;;;;;;4794500;29;20528;-76
2024/03/20 01:02:21;;;;;;;8.10;4.70;;;10.30;99.90;;;;;;4799144;29;20523;-77
2024/03/20 01:04:47;;;;;;;5.20;4.60;;;10.30;99.90;;;;;;4774454;29;20591;-77
2024/03/20 01:07:13;;;;;;;6.57;4.50;;;10.20;99.90;;;;;;4791635;29;20219;-77
2024/03/20 01:09:38;;;;;;;7.20;4.40;;;10.20;99.90;;;;;;4804970;29;20223;-77
2024/03/20 01:12:04;;;;;;;5.00;3.57;;;10.20;99.90;;;;;;4804507;29;20251;-77
2024/03/20 01:14:30;;;;;;;9.80;4.53;;;10.20;99.90;;;;;;4806854;29;20392;-77
2024/03/20 01:16:55;;;;;;;8.80;4.13;;;10.20;99.90;;;;;;4798657;29;20811;-77
2024/03/20 01:19:21;;;;;;;6.37;3.80;;;10.20;99.90;;;;;;4790128;29;20501;-78
2024/03/20 01:21:47;;;;;;;6.07;3.77;;;10.20;99.90;;;;;;4794745;29;20207;-78
2024/03/20 01:24:12;;;;;;;5.27;3.80;;;10.10;99.90;;;;;;4798600;29;20256;-76
2024/03/20 01:26:38;;;;;;;4.70;3.27;;;10.10;99.90;;;;;;4785293;29;20223;-76
2024/03/20 01:29:03;;;;;;;5.93;3.70;;;10.10;99.90;;;;;;4784043;29;20465;-76
2024/03/20 01:31:29;;;;;;;5.40;3.53;;;10.00;99.90;;;;;;4800922;29;20200;-78
2024/03/20 01:33:55;;;;;;;4.87;4.00;;;10.00;99.90;;;;;;4778501;30;20195;-77
2024/03/20 01:36:20;;;;;;;5.37;3.93;;;10.00;99.90;;;;;;4796210;29;20294;-76
2024/03/20 01:38:46;;;;;;;5.37;4.00;;;10.00;99.90;;;;;;4799941;29;20202;-77
2024/03/20 01:41:11;;;;;;;6.90;4.40;;;9.90;99.90;;;;;;4792924;29;20199;-78
2024/03/20 01:43:37;;;;;;;7.50;4.17;;;9.90;99.90;;;;;;4785254;30;20190;-76
2024/03/20 01:46:25;;;;;;;4.73;3.20;;;9.90;99.90;;;;;;4795084;29;20211;-75
2024/03/20 01:48:52;;;;;;;5.57;3.77;;;9.80;99.90;;;;;;4802115;29;20242;-77
2024/03/20 01:51:18;;;;;;;5.73;3.60;;;9.80;99.90;;;;;;4801238;29;20765;-77
2024/03/20 01:53:44;;;;;;;6.60;3.90;;;9.80;99.90;;;;;;4805640;29;20462;-76
2024/03/20 01:56:11;;;;;;;6.63;4.40;;;9.80;99.90;;;;;;4800268;29;20494;-76
2024/03/20 01:58:36;;;;;;;8.03;5.23;;;9.80;99.90;;;;;;4799134;29;20436;-77
2024/03/20 02:01:02;;;;;;;5.17;4.10;;;9.70;99.90;;;;;;4792610;29;20714;-78
2024/03/20 02:03:28;;;;;;;5.00;3.80;;;9.70;99.90;;;;;;4788932;29;20220;-76
2024/03/20 02:05:54;;;;;;;7.07;4.10;;;9.70;99.90;;;;;;4805015;29;20214;-77
2024/03/20 02:08:20;;;;;;;4.87;3.53;;;9.70;99.90;;;;;;4810432;29;20227;-77
2024/03/20 02:10:45;;;;;;;5.20;4.20;;;9.60;99.90;;;;;;4808515;29;20467;-76
2024/03/20 02:13:11;;;;;;;4.30;3.20;;;9.60;99.90;;;;;;4801093;29;20238;-76
2024/03/20 02:15:37;;;;;;;4.60;3.70;;;9.50;99.90;;;;;;4777742;29;20230;-76
2024/03/20 02:18:04;;;;;;;5.73;4.17;;;9.50;99.90;;;;;;4812648;29;20183;-77
2024/03/20 02:20:30;;;;;;;10.23;5.27;;;9.50;99.90;;;;;;4801640;29;20722;-76
2024/03/20 02:22:58;;;;;;;8.03;5.10;;;9.50;99.90;;;;;;4815749;29;20428;-77
2024/03/20 02:25:29;;;;;;;4.90;4.40;;;9.50;99.90;;;;;;4818207;29;20514;-77
2024/03/20 02:27:55;;;;;;;5.77;4.20;;;9.50;99.90;;;;;;4794170;29;20455;-77
2024/03/20 02:30:21;;;;;;;6.70;4.40;;;9.50;99.90;;;;;;4786959;29;20937;-77
2024/03/20 02:32:47;;;;;;;5.63;4.37;;;9.50;99.90;;;;;;4794172;29;20435;-77
2024/03/20 02:35:13;;;;;;;7.20;5.07;;;9.50;99.90;;;;;;4809381;29;20202;-76
2024/03/20 02:37:38;;;;;;;8.37;4.67;;;9.50;99.90;;;;;;4793882;29;20223;-76
2024/03/20 02:40:07;;;;;;;6.77;4.60;;;9.50;99.90;;;;;;4792067;29;20202;-75
2024/03/20 02:42:33;;;;;;;6.87;4.40;;;9.50;99.90;;;;;;4801811;29;20187;-76
2024/03/20 02:44:59;;;;;;;5.90;3.90;;;9.50;99.90;;;;;;4783925;29;20554;-78
2024/03/20 02:47:25;;;;;;;5.40;4.63;;;9.50;99.90;;;;;;4799224;29;20475;-78
2024/03/20 02:49:52;;;;;;;6.30;4.90;;;9.40;99.90;;;;;;4805898;29;20226;-76
2024/03/20 02:52:22;;;;;;;5.60;3.80;;;9.40;99.90;;;;;;4793284;29;20201;-76
2024/03/20 02:54:47;;;;;;;5.00;4.40;;;9.40;99.90;;;;;;4816293;29;20420;-76
2024/03/20 02:57:13;;;;;;;6.13;4.17;;;9.40;99.90;;;;;;4788326;29;20528;-77
2024/03/20 02:59:39;;;;;;;5.43;4.00;;;9.40;99.90;;;;;;4802975;29;20259;-76
2024/03/20 03:02:06;;;;;;;10.27;5.60;;;9.40;99.90;;;;;;4793668;29;20436;-76
2024/03/20 03:04:31;;;;;;;10.27;5.70;;;9.40;99.90;;;;;;4810949;29;20230;-78
2024/03/20 03:06:57;;;;;;;6.60;4.80;;;9.40;99.90;;;;;;4795556;29;20464;-76
2024/03/20 03:09:22;;;;;;;5.67;5.03;;;9.40;99.90;;;;;;4804631;29;20283;-76
2024/03/20 03:11:48;;;;;;;8.30;5.57;;;9.30;99.90;;;;;;4798670;29;20598;-77
2024/03/20 03:14:15;;;;;;;5.90;4.87;;;9.40;99.90;;;;;;4806349;29;20242;-76
2024/03/20 03:16:41;;;;;;;5.23;4.73;;;9.40;99.90;;;;;;4791968;29;20282;-76
2024/03/20 03:19:08;;;;;;;7.93;5.07;;;9.40;99.90;;;;;;4794722;29;20704;-77
2024/03/20 03:21:34;;;;;;;12.70;5.50;;;9.40;99.90;;;;;;4804140;29;20531;-76
2024/03/20 03:23:59;;;;;;;7.83;4.93;;;9.40;99.90;;;;;;4806660;29;20512;-76
2024/03/20 03:26:25;;;;;;;6.90;5.10;;;9.40;99.90;;;;;;4801601;29;20550;-75
2024/03/20 03:28:51;;;;;;;8.57;5.50;;;9.40;99.90;;;;;;4783846;30;20289;-77
2024/03/20 03:31:16;;;;;;;7.90;6.10;;;9.40;99.90;;;;;;4795395;29;20619;-76
2024/03/20 03:33:42;;;;;;;7.67;5.57;;;9.40;99.90;;;;;;4807173;29;20199;-77
2024/03/20 03:36:09;;;;;;;8.67;6.57;;;9.40;99.90;;;;;;4785063;29;20221;-76
2024/03/20 03:38:35;;;;;;;10.93;5.83;;;9.40;99.90;;;;;;4796047;29;20599;-76
2024/03/20 03:41:02;;;;;;;8.50;6.17;;;9.40;99.90;;;;;;4806463;29;20465;-76
2024/03/20 03:43:28;;;;;;;7.93;5.63;;;9.40;99.90;;;;;;4794872;29;20481;-76
2024/03/20 03:45:54;;;;;;;5.90;5.30;;;9.40;99.90;;;;;;4776420;29;20912;-77
2024/03/20 03:48:20;;;;;;;8.00;6.17;;;9.30;99.90;;;;;;4799793;29;20424;-77
2024/03/20 03:50:48;;;;;;;7.67;5.53;;;9.30;99.90;;;;;;4787658;29;20990;-77
2024/03/20 03:53:15;;;;;;;9.17;6.20;;;9.30;99.90;;;;;;4783123;29;20195;-75
2024/03/20 03:55:41;;;;;;;6.90;5.50;;;9.30;99.90;;;;;;4796493;29;20779;-76
2024/03/20 03:58:06;;;;;;;10.73;6.37;;;9.20;99.90;;;;;;4786345;29;20432;-76
2024/03/20 04:00:32;;;;;;;9.03;6.50;;;9.20;99.90;;;;;;4799499;29;20206;-77
2024/03/20 04:02:57;;;;;;;8.70;6.47;;;9.20;99.90;;;;;;4808486;29;20212;-77
2024/03/20 04:05:24;;;;;;;7.00;5.97;;;9.20;99.90;;;;;;4772412;29;20580;-77
2024/03/20 04:07:52;;;;;;;8.30;6.33;;;9.20;99.90;;;;;;4805929;29;20487;-77
2024/03/20 04:10:18;;;;;;;9.00;6.87;;;9.10;99.90;;;;;;4806667;29;20480;-77
2024/03/20 04:12:43;;;;;;;8.70;5.50;;;9.10;99.90;;;;;;4798250;29;20419;-77
2024/03/20 04:15:09;;;;;;;8.00;6.13;;;9.10;99.90;;;;;;4795090;29;20286;-76
2024/03/20 04:17:35;;;;;;;9.50;7.00;;;9.10;99.90;;;;;;4801465;29;20214;-78
2024/03/20 04:20:00;;;;;;;9.23;7.20;;;9.10;99.90;;;;;;4792991;29;20365;-76
2024/03/20 04:22:26;;;;;;;8.37;6.40;;;9.10;99.90;;;;;;4798126;29;20206;-76
2024/03/20 04:24:51;;;;;;;8.23;7.13;;;9.00;99.90;;;;;;4802359;29;20195;-77
2024/03/20 04:27:17;;;;;;;9.13;6.70;;;9.10;99.90;;;;;;4793315;29;20227;-77
2024/03/20 04:29:43;;;;;;;8.60;7.27;;;9.00;99.90;;;;;;4804972;29;20579;-76
2024/03/20 04:32:10;;;;;;;8.33;6.63;;;9.00;99.90;;;;;;4799986;29;20195;-77
2024/03/20 04:34:36;;;;;;;10.50;7.77;;;9.10;99.90;;;;;;4794915;29;20355;-76
2024/03/20 04:37:02;;;;;;;9.93;7.27;;;9.00;99.90;;;;;;4792793;29;20920;-77
2024/03/20 04:39:32;;;;;;;9.33;6.60;;;9.10;99.90;;;;;;4795325;29;20447;-78
2024/03/20 04:41:58;;;;;;;10.17;8.07;;;9.10;99.90;;;;;;4802580;29;20290;-76
2024/03/20 04:44:24;;;;;;;8.07;7.07;;;9.10;99.90;;;;;;4804381;29;20826;-76
2024/03/20 04:46:50;;;;;;;9.67;6.70;;;9.10;99.90;;;;;;4790247;29;20452;-76
2024/03/20 04:49:15;;;;;;;9.47;7.60;;;9.00;99.90;;;;;;4778425;29;20539;-79
2024/03/20 04:51:41;;;;;;;11.50;7.03;;;9.10;99.90;;;;;;4808179;29;20218;-76
2024/03/20 04:54:07;;;;;;;8.00;7.20;;;9.10;99.90;;;;;;4794370;29;20203;-78
2024/03/20 04:56:32;;;;;;;12.53;7.53;;;9.10;99.90;;;;;;4798837;29;20222;-75
2024/03/20 04:58:58;;;;;;;12.43;7.77;;;9.10;99.90;;;;;;4799257;29;20297;-76
2024/03/20 05:01:24;;;;;;;9.80;7.63;;;9.10;99.90;;;;;;4799788;29;20202;-78
2024/03/20 05:03:49;;;;;;;10.03;7.27;;;9.10;99.90;;;;;;4799530;29;20215;-77
2024/03/20 05:06:15;;;;;;;7.50;6.80;;;9.10;99.90;;;;;;4818423;29;20226;-78
2024/03/20 05:08:41;;;;;;;9.90;7.57;;;9.10;99.90;;;;;;4802312;29;20233;-77
2024/03/20 05:11:06;;;;;;;8.00;6.33;;;9.10;99.90;;;;;;4805636;29;20217;-78
2024/03/20 05:13:32;;;;;;;9.23;7.77;;;9.00;99.90;;;;;;4796031;29;20254;-76
2024/03/20 05:15:59;;;;;;;8.70;7.37;;;9.00;99.90;;;;;;4816893;29;20476;-78
2024/03/20 05:18:25;;;;;;;13.20;8.10;;;9.00;99.90;;;;;;4791765;30;20183;-76
2024/03/20 05:20:51;;;;;;;11.40;8.50;;;9.00;99.90;;;;;;4799712;30;20424;-77
2024/03/20 05:23:16;;;;;;;9.43;7.30;;;9.00;99.90;;;;;;4780946;30;20187;-76
2024/03/20 05:25:42;;;;;;;14.47;8.40;;;9.00;99.90;;;;;;4805177;29;20196;-75
2024/03/20 05:28:08;;;;;;;9.20;7.67;;;8.90;99.90;;;;;;4820968;29;20261;-78
2024/03/20 05:30:33;;;;;;;16.97;9.47;;;8.90;99.90;;;;;;4805670;29;20202;-78
2024/03/20 05:32:59;;;;;;;9.20;7.27;;;8.90;99.90;;;;;;4816645;29;20189;-79
2024/03/20 05:35:25;;;;;;;14.03;9.50;;;8.90;99.90;;;;;;4815189;29;20505;-78
2024/03/20 05:37:50;;;;;;;11.40;8.43;;;8.90;99.90;;;;;;4781926;30;20608;-76
2024/03/20 05:40:17;;;;;;;11.73;9.13;;;8.90;99.90;;;;;;4793582;29;20217;-77
2024/03/20 05:42:42;;;;;;;12.93;7.90;;;8.90;99.90;;;;;;4790074;29;20194;-76
2024/03/20 05:45:08;;;;;;;13.47;8.80;;;8.90;99.90;;;;;;4790057;30;20437;-77
2024/03/20 05:47:34;;;;;;;12.27;7.63;;;8.90;99.90;;;;;;4790803;29;20301;-78
2024/03/20 05:50:02;;;;;;;9.17;8.10;;;8.90;99.90;;;;;;4784178;29;20265;-78
2024/03/20 05:52:27;;;;;;;10.63;7.93;;;9.00;99.90;;;;;;4794014;30;20441;-78
2024/03/20 05:54:54;;;;;;;14.47;8.80;;;9.00;99.90;;;;;;4806407;29;20428;-77
2024/03/20 05:57:20;;;;;;;10.03;7.87;;;9.00;99.90;;;;;;4813757;29;20315;-79
2024/03/20 05:59:46;;;;;;;12.07;8.20;;;9.10;99.90;;;;;;4800237;29;20432;-77
2024/03/20 06:02:12;;;;;;;8.73;7.27;;;9.10;99.90;;;;;;4794423;29;20221;-79
2024/03/20 06:04:38;;;;;;;10.93;7.33;;;9.20;99.90;;;;;;4817088;29;20462;-80
2024/03/20 06:07:04;;;;;;;9.13;7.70;;;9.20;99.90;;;;;;4812412;29;20512;-79
2024/03/20 06:09:32;;;;;;;12.67;9.60;;;9.30;99.90;;;;;;4815488;29;20230;-79
2024/03/20 06:11:58;;;;;;;13.80;8.73;;;9.40;99.90;;;;;;4803979;29;20493;-80
2024/03/20 06:14:25;;;;;;;10.10;8.73;;;9.40;99.90;;;;;;4807299;29;20478;-82
2024/03/20 06:16:51;;;;;;;10.63;9.00;;;9.50;99.90;;;;;;4821493;29;20551;-78
2024/03/20 06:19:17;;;;;;;10.53;7.53;;;9.50;99.90;;;;;;4812613;29;20473;-79
2024/03/20 06:21:45;;;;;;;10.63;7.87;;;9.60;99.90;;;;;;4811435;29;20253;-79
2024/03/20 06:24:11;;;;;;;18.07;11.23;;;9.70;99.90;;;;;;4801387;29;20428;-80
2024/03/20 06:26:37;;;;;;;11.43;9.33;;;9.70;99.90;;;;;;4803761;29;20476;-79
2024/03/20 06:29:03;;;;;;;16.23;10.90;;;9.80;99.90;;;;;;4800744;29;20528;-79
2024/03/20 06:31:29;;;;;;;15.50;9.93;;;9.80;99.90;;;;;;4822254;29;20286;-79
2024/03/20 06:33:56;;;;;;;12.23;8.93;;;9.90;99.90;;;;;;4802304;30;20176;-80
2024/03/20 06:36:22;;;;;;;11.30;9.10;;;10.00;99.90;;;;;;4798915;29;20508;-79
2024/03/20 06:38:49;;;;;;;14.57;10.40;;;10.00;99.90;;;;;;4798513;29;20412;-81
2024/03/20 06:41:17;;;;;;;13.00;9.00;;;10.10;99.90;;;;;;4799749;29;20743;-79
2024/03/20 06:43:44;;;;;;;13.50;10.37;;;10.10;99.90;;;;;;4793507;29;20432;-80
2024/03/20 06:46:10;;;;;;;10.17;7.80;;;10.20;99.90;;;;;;4823997;29;20452;-78
2024/03/20 06:48:58;;;;;;;13.20;10.07;;;10.30;99.90;;;;;;4804291;30;20430;-79
2024/03/20 06:51:25;;;;;;;14.80;11.13;;;10.30;99.90;;;;;;4791714;29;20468;-80
2024/03/20 06:53:50;;;;;;;12.63;9.43;;;10.50;99.90;;;;;;4794290;30;20434;-78
2024/03/20 06:56:19;;;;;;;14.73;10.87;;;10.50;99.90;;;;;;4780887;30;20498;-80
2024/03/20 06:58:47;;;;;;;11.50;9.30;;;10.60;99.90;;;;;;4806390;30;20202;-79
2024/03/20 07:01:12;;;;;;;11.20;9.00;;;10.60;99.90;;;;;;4817092;29;20432;-79
2024/03/20 07:03:40;;;;;;;14.87;9.70;;;10.70;99.90;;;;;;4808997;29;20179;-80
2024/03/20 07:06:07;;;;;;;13.00;9.70;;;10.80;99.90;;;;;;4774548;29;20270;-79
2024/03/20 07:08:32;;;;;;;11.07;8.67;;;10.80;99.90;;;;;;4808631;29;20457;-79
2024/03/20 07:10:58;;;;;;;11.20;8.60;;;11.00;99.90;;;;;;4810193;29;20503;-82
2024/03/20 07:13:24;;;;;;;13.57;10.53;;;11.10;99.90;;;;;;4789726;30;20251;-80
2024/03/20 07:15:51;;;;;;;20.57;12.17;;;11.20;99.90;;;;;;4793485;29;20203;-80
2024/03/20 07:18:17;;;;;;;17.00;10.83;;;11.30;99.90;;;;;;4806166;29;20446;-81
2024/03/20 07:20:44;;;;;;;13.73;10.57;;;11.40;99.90;;;;;;4782298;30;20201;-80
2024/03/20 07:23:11;;;;;;;12.70;10.10;;;11.50;99.90;;;;;;4794171;29;20219;-81
2024/03/20 07:25:37;;;;;;;12.47;9.30;;;11.60;99.90;;;;;;4796723;29;20445;-81
2024/03/20 07:28:03;;;;;;;10.70;9.30;;;11.70;99.90;;;;;;4820650;29;20507;-82
2024/03/20 07:30:30;;;;;;;15.33;9.70;;;11.80;99.90;;;;;;4785423;30;20471;-82
2024/03/20 07:32:59;;;;;;;10.20;9.10;;;11.90;99.90;;;;;;4794335;30;20210;-82
2024/03/20 07:35:29;;;;;;;12.80;9.30;;;12.00;99.90;;;;;;4805178;29;20527;-80
2024/03/20 07:37:55;;;;;;;14.90;10.37;;;12.10;99.90;;;;;;4784204;29;20457;-81
2024/03/20 07:40:22;;;;;;;13.17;8.93;;;12.20;99.90;;;;;;4816030;29;20437;-81
2024/03/20 07:42:50;;;;;;;14.03;10.70;;;12.30;99.90;;;;;;4806713;29;20450;-80
2024/03/20 07:45:17;;;;;;;11.73;10.53;;;12.40;99.90;;;;;;4761261;30;20463;-79
2024/03/20 07:47:44;;;;;;;12.90;9.53;;;12.40;99.90;;;;;;4755094;30;20462;-81
2024/03/20 07:50:10;;;;;;;11.43;9.70;;;12.40;99.90;;;;;;4751277;30;20228;-81
2024/03/20 07:52:36;;;;;;;17.10;11.30;;;12.40;99.90;;;;;;4747318;30;20482;-81
2024/03/20 07:55:05;;;;;;;15.13;11.97;;;12.50;99.90;;;;;;4762106;30;20430;-81
2024/03/20 07:57:32;;;;;;;19.90;11.83;;;12.40;99.90;;;;;;4735208;30;20466;-79
2024/03/20 07:59:57;;;;;;;16.07;10.67;;;12.50;99.90;;;;;;4755137;30;20430;-80
2024/03/20 08:02:23;;;;;;;12.37;9.60;;;12.50;99.90;;;;;;4761773;30;20429;-80
2024/03/20 08:04:49;;;;;;;12.37;9.60;;;12.70;99.90;;;;;;4745017;30;20252;-77
2024/03/20 08:07:18;;;;;;;12.27;10.07;;;12.80;99.90;;;;;;4729447;30;20446;-79
2024/03/20 08:09:46;;;;;;;12.77;10.30;;;12.90;99.90;;;;;;4747190;30;20536;-80
2024/03/20 08:12:14;;;;;;;16.33;10.77;;;12.90;99.90;;;;;;4761117;30;20451;-80
2024/03/20 08:14:45;;;;;;;23.30;11.60;;;13.00;99.90;;;;;;4749905;30;20449;-80
2024/03/20 08:17:13;;;;;;;13.00;10.63;;;13.00;99.90;;;;;;4782699;29;20539;-82
2024/03/20 08:19:43;;;;;;;10.83;8.60;;;13.10;99.90;;;;;;4810483;29;20428;-78
2024/03/20 08:22:10;;;;;;;11.17;9.17;;;13.20;99.90;;;;;;4795176;29;20407;-81
2024/03/20 08:24:36;;;;;;;14.83;9.87;;;13.30;99.90;;;;;;4825897;29;20187;-80
2024/03/20 08:27:02;;;;;;;17.50;12.40;;;13.40;99.90;;;;;;4816476;29;20472;-79
2024/03/20 08:29:29;;;;;;;14.53;10.50;;;13.50;99.90;;;;;;4824442;29;20676;-82
2024/03/20 08:32:18;;;;;;;10.70;8.40;;;13.60;99.90;;;;;;4816430;29;20462;-81
2024/03/20 08:34:47;;;;;;;13.23;11.27;;;13.70;99.90;;;;;;4791309;29;20446;-83
2024/03/20 08:37:15;;;;;;;12.87;8.90;;;13.70;99.90;;;;;;4781464;29;20445;-82
2024/03/20 08:39:43;;;;;;;11.20;9.00;;;13.80;99.90;;;;;;4805148;29;20440;-79
2024/03/20 08:42:09;;;;;;;14.33;12.57;;;13.90;99.90;;;;;;4808942;29;20432;-80
2024/03/20 08:44:55;;;;;;;15.20;10.33;;;14.00;99.90;;;;;;4779850;30;20436;-79
2024/03/20 08:47:23;;;;;;;12.70;9.80;;;14.10;99.90;;;;;;4795926;29;20467;-79
2024/03/20 08:49:53;;;;;;;15.00;10.47;;;14.10;99.90;;;;;;4823102;29;20463;-79
2024/03/20 08:52:19;;;;;;;13.30;9.90;;;14.20;99.90;;;;;;4785514;29;20426;-80
2024/03/20 08:54:49;;;;;;;14.20;10.27;;;14.30;99.90;;;;;;4779681;30;20417;-81
2024/03/20 08:57:24;;;;;;;12.83;9.83;;;14.30;99.90;;;;;;4798424;29;20190;-80
2024/03/20 08:59:50;;;;;;;9.30;8.30;;;14.40;99.90;;;;;;4798896;29;20450;-80
2024/03/20 09:02:16;;;;;;;8.70;7.67;;;14.40;99.90;;;;;;4806780;30;20490;-80
2024/03/20 09:04:42;;;;;;;12.73;9.03;;;14.60;99.90;;;;;;4810201;29;20412;-80
2024/03/20 09:07:10;;;;;;;9.13;7.47;;;14.70;99.90;;;;;;4813233;29;20249;-80
2024/03/20 09:09:36;;;;;;;18.70;9.83;;;14.80;99.90;;;;;;4783096;30;20485;-80
2024/03/20 09:12:04;;;;;;;12.60;8.23;;;14.90;99.90;;;;;;4802656;29;20472;-80
2024/03/20 09:14:32;;;;;;;11.10;9.60;;;14.90;99.90;;;;;;4815220;29;20408;-82
2024/03/20 09:16:58;;;;;;;11.03;7.83;;;15.00;99.90;;;;;;4795611;29;20473;-82
2024/03/20 09:19:26;;;;;;;7.90;6.83;;;15.10;99.90;;;;;;4812376;29;20449;-80
2024/03/20 09:22:12;;;;;;;9.23;8.30;;;15.20;99.90;;;;;;4806623;29;20420;-80
2024/03/20 09:25:12;;;;;;;7.77;6.97;;;15.20;99.90;;;;;;4799427;29;20415;-80
2024/03/20 09:27:45;;;;;;;8.30;7.20;;;15.30;99.90;;;;;;4791434;30;20453;-80
2024/03/20 09:33:03;;;;;;;11.53;8.57;;;15.50;99.90;;;;;;4787156;29;20444;-81
2024/03/20 09:35:32;;;;;;;9.57;7.40;;;15.50;99.90;;;;;;4801038;29;20445;-80
2024/03/20 09:38:19;;;;;;;9.40;6.33;;;15.60;99.90;;;;;;4744556;30;20466;-82
2024/03/20 09:41:05;;;;;;;12.57;7.63;;;15.70;99.90;;;;;;4759749;30;20400;-81
2024/03/20 09:43:38;;;;;;;13.37;7.10;;;15.90;99.90;;;;;;4744699;30;20507;-80
2024/03/20 09:46:25;;;;;;;8.70;6.00;;;16.00;99.90;;;;;;4758981;30;20478;-80
2024/03/20 09:48:55;;;;;;;6.43;5.77;;;16.10;99.90;;;;;;4744468;30;20427;-83
2024/03/20 09:51:29;;;;;;;10.17;8.90;;;16.30;99.90;;;;;;4734598;30;20464;-81
2024/03/20 09:53:58;;;;;;;12.53;9.10;;;16.40;99.60;;;;;;4728863;30;20424;-81
2024/03/20 10:02:11;;;;;;;9.37;5.20;;;16.50;98.00;;;;;;4853401;29;20486;-81
2024/03/20 10:04:40;;;;;;;8.33;5.63;;;16.60;97.80;;;;;;4822169;29;20447;-81
2024/03/20 10:07:13;;;;;;;8.67;7.13;;;16.70;97.20;;;;;;4847962;29;20450;-80
2024/03/20 10:09:44;;;;;;;6.83;6.10;;;16.80;96.30;;;;;;4846662;29;20468;-79
2024/03/20 10:12:31;;;;;;;7.20;5.53;;;16.90;96.00;;;;;;4836119;29;20438;-81
2024/03/20 10:15:04;;;;;;;6.40;5.27;;;17.00;94.90;;;;;;4866920;29;20429;-80
2024/03/20 10:17:36;;;;;;;6.90;4.93;;;17.10;93.60;;;;;;4798512;29;20476;-82
2024/03/20 10:20:40;;;;;;;8.40;5.87;;;17.20;93.30;;;;;;4812162;29;20432;-81
2024/03/20 10:23:37;;;;;;;6.40;5.20;;;17.20;92.00;;;;;;4798709;29;20438;-81
2024/03/20 10:26:33;;;;;;;7.83;4.87;;;17.30;91.90;;;;;;4850168;29;20446;-79
2024/03/20 10:29:08;;;;;;;12.80;7.23;;;17.50;92.00;;;;;;4835625;29;20441;-82
2024/03/20 10:31:44;;;;;;;8.80;5.80;;;17.50;91.50;;;;;;4835937;29;20536;-83
2024/03/20 10:34:18;;;;;;;8.50;5.93;;;17.60;90.70;;;;;;4816053;29;20461;-82
2024/03/20 10:40:09;;;;;;;7.60;6.03;;;17.70;89.60;;;;;;5402175;24;20481;-84
2024/03/20 10:43:14;;;;;;;10.40;6.27;;;17.80;88.10;;;;;;4792004;29;20439;-82
2024/03/20 10:51:04;;;;;;;6.07;5.47;;;18.10;86.20;;;;;;4845735;24;20504;-80
2024/03/20 10:53:31;;;;;;;7.20;6.50;;;18.20;85.00;;;;;;4824187;29;20415;-86
2024/03/20 10:59:02;;;;;;;7.90;5.60;;;18.30;82.40;;;;;;5076867;23;20506;-81
2024/03/20 11:01:36;;;;;;;6.00;4.80;;;18.50;81.20;;;;;;4817441;29;20431;-82
2024/03/20 11:10:31;;;;;;;12.43;5.73;;;18.70;77.70;;;;;;4456150;23;20498;-81
2024/03/20 11:13:26;;;;;;;6.90;5.47;;;19.00;75.00;;;;;;4800610;29;20418;-82
2024/03/20 11:16:20;;;;;;;7.53;4.83;;;19.00;74.00;;;;;;4824128;29;20463;-81
2024/03/20 11:19:09;;;;;;;6.77;5.47;;;19.10;73.20;;;;;;4803284;29;20879;-80
2024/03/20 11:24:48;;;;;;;5.80;4.00;;;19.00;70.20;;;;;;4985265;24;20498;-84
2024/03/20 11:27:37;;;;;;;6.33;3.70;;;19.10;68.00;;;;;;4802186;29;20462;-82
2024/03/20 11:30:25;;;;;;;7.57;4.50;;;19.20;67.30;;;;;;4798467;29;20514;-82
2024/03/20 11:32:53;;;;;;;5.90;4.23;;;19.40;65.60;;;;;;4814725;29;20416;-82
2024/03/20 11:41:01;;;;;;;10.33;5.40;;;19.40;64.30;;;;;;4827687;27;20499;-82
2024/03/20 11:43:34;;;;;;;5.80;4.10;;;19.40;64.40;;;;;;4828991;29;20446;-82
2024/03/20 11:48:59;;;;;;;5.90;3.50;;;19.40;61.90;;;;;;5075410;24;20497;-80
2024/03/20 11:51:45;;;;;;;4.57;3.10;;;19.40;61.50;;;;;;4798408;29;20479;-82
2024/03/20 11:54:16;;;;;;;4.80;3.10;;;19.30;60.70;;;;;;4793142;29;20497;-81
2024/03/20 12:07:52;;;;;;;3.67;2.13;;;19.20;60.10;;;;;;5626375;22;15111873;-77
2024/03/20 12:10:36;;;;;;;3.17;1.80;;;19.70;58.00;;;;;;6287902;22;20147;-77
2024/03/20 12:32:00;;;;;;;5.80;2.10;;;19.90;55.50;;;;;;6287034;22;20394;-78
2024/03/20 12:49:13;;;;;;;2.03;1.37;;;20.20;53.80;;;;;;6279703;22;20439;-76
2024/03/20 13:22:37;;;;;;;3.10;1.50;;;20.10;52.20;;;;;;6273765;22;20462;-79
2024/03/20 13:42:33;;;;;;;6.20;3.00;;;19.90;51.70;;;;;;6259212;22;20491;-78
2024/03/20 13:51:59;;;;;;;6.70;1.70;;;19.60;51.80;;;;;;6253100;22;20479;-78
2024/03/20 14:12:33;;;;;;;4.83;2.00;;;19.60;51.90;;;;;;6296924;22;20439;-79
2024/03/20 14:14:59;;;;;;;3.20;1.60;;;19.60;52.00;;;;;;6229394;22;20493;-78
2024/03/20 14:17:26;;;;;;;4.40;2.00;;;19.60;52.10;;;;;;6229848;22;20459;-78
2024/03/20 14:28:22;;;;;;;2.27;1.83;;;19.50;52.30;;;;;;6277625;22;20431;-78
2024/03/20 14:30:48;;;;;;;2.03;1.40;;;19.50;52.20;;;;;;6254312;22;20382;-77
2024/03/20 14:33:22;;;;;;;2.80;1.37;;;19.50;52.20;;;;;;6228966;22;20363;-78
2024/03/20 14:35:49;;;;;;;2.23;1.40;;;19.50;52.20;;;;;;6254021;22;20430;-78
2024/03/20 14:49:31;;;;;;;3.20;1.70;;;19.60;52.50;;;;;;6246462;22;20416;-76
2024/03/20 15:14:30;;;;;;;2.57;1.90;;;19.60;51.80;;;;;;6267824;22;20439;-79
2024/03/20 15:22:49;;;;;;;2.93;2.17;;;19.40;51.90;;;;;;6248267;22;20412;-77
2024/03/20 15:25:17;;;;;;;4.97;1.73;;;19.40;51.90;;;;;;6249004;22;20466;-78
2024/03/20 15:30:40;;;;;;;3.10;1.60;;;19.30;52.30;;;;;;6243148;22;20432;-76
2024/03/20 15:33:14;;;;;;;2.10;1.70;;;19.30;52.50;;;;;;6179111;22;20428;-78
2024/03/20 15:48:21;;;;;;;3.50;2.20;;;19.30;52.20;;;;;;6271448;22;20477;-78
2024/03/20 15:50:49;;;;;;;3.57;1.83;;;19.20;52.30;;;;;;6229239;22;20423;-77
2024/03/20 16:10:26;;;;;;;2.87;1.67;;;19.20;52.80;;;;;;6231680;22;20432;-79
2024/03/20 16:13:34;;;;;;;2.70;1.83;;;19.20;52.80;;;;;;6198675;22;20380;-77
2024/03/20 16:44:06;;;;;;;2.17;1.60;;;18.50;53.10;;;;;;6125963;23;20419;-78
2024/03/20 17:00:59;;;;;;;1.83;1.63;;;18.20;53.10;;;;;;6238423;22;20456;-78
2024/03/20 17:28:53;;;;;;;1.90;1.53;;;17.50;53.80;;;;;;6224826;22;20510;-76
2024/03/20 18:07:27;;;;;;;4.80;1.90;;;16.90;55.50;;;;;;6225729;23;20443;-77
2024/03/20 18:13:00;;;;;;;2.53;1.97;;;16.80;55.30;;;;;;6183897;23;20508;-77
2024/03/20 18:18:48;;;;;;;2.60;2.10;;;16.70;55.40;;;;;;6221730;22;20426;-78
2024/03/20 18:44:22;;;;;;;5.40;4.17;;;16.10;56.90;;;;;;6257979;22;20449;-77
2024/03/20 20:07:38;;;;;;;5.00;4.03;;;14.60;62.10;;;;;;6207625;22;20434;-74
2024/03/20 20:10:37;;;;;;;7.70;4.67;;;14.50;62.50;;;;;;6286891;22;20411;-77
2024/03/20 20:13:05;;;;;;;12.10;4.40;;;14.40;62.90;;;;;;6230987;22;20383;-78
2024/03/20 20:15:33;;;;;;;6.43;4.53;;;14.40;63.40;;;;;;6228315;22;20457;-75
2024/03/20 20:21:12;;;;;;;6.70;4.67;;;14.40;64.10;;;;;;6270332;22;20442;-76
2024/03/20 20:24:32;;;;;;;7.00;4.90;;;14.30;64.40;;;;;;6246070;22;21145;-69
2024/03/20 20:33:16;;;;;;;8.00;5.87;;;14.20;65.10;;;;;;6277943;22;20474;-76
2024/03/20 20:47:45;;;;;;;8.83;6.77;;;14.00;67.60;;;;;;6244955;22;20444;-75